createdAt,value
2023-03-18T00:02:02.810Z,22.60
2023-03-18T00:05:15.450Z,22.60
2023-03-18T00:08:24.532Z,22.50
2023-03-18T00:11:34.573Z,22.50
2023-03-18T00:14:44.208Z,22.50
2023-03-18T00:17:54.572Z,22.50
2023-03-18T00:21:07.852Z,22.50
2023-03-18T00:24:16.841Z,22.50
2023-03-18T00:27:29.277Z,22.50
2023-03-18T00:30:39.208Z,22.50
2023-03-18T00:33:50.282Z,22.50
2023-03-18T00:36:58.624Z,22.50
2023-03-18T00:40:08.396Z,22.50
2023-03-18T00:43:16.357Z,22.40
2023-03-18T00:46:25.459Z,22.40
2023-03-18T00:49:35.080Z,22.40
2023-03-18T00:52:43.827Z,22.40
2023-03-18T00:55:51.591Z,22.40
2023-03-18T00:59:00.049Z,22.40
2023-03-18T01:02:08.108Z,22.40
2023-03-18T01:05:17.420Z,22.40
2023-03-18T01:08:25.593Z,22.40
2023-03-18T01:11:34.285Z,22.40
2023-03-18T01:14:43.073Z,22.30
2023-03-18T01:17:52.305Z,22.30
2023-03-18T01:21:01.757Z,22.30
2023-03-18T01:24:13.947Z,22.30
2023-03-18T01:27:21.785Z,22.30
2023-03-18T01:30:30.946Z,22.30
2023-03-18T01:33:38.824Z,22.30
2023-03-18T01:36:48.071Z,22.30
2023-03-18T01:39:56.129Z,22.30
2023-03-18T01:43:14.403Z,22.30
2023-03-18T01:46:32.497Z,22.30
2023-03-18T01:49:44.406Z,22.30
2023-03-18T01:52:56.311Z,22.30
2023-03-18T01:56:04.504Z,22.30
2023-03-18T01:59:13.027Z,22.20
2023-03-18T02:02:21.743Z,22.20
2023-03-18T02:05:29.816Z,22.20
2023-03-18T02:08:40.304Z,22.20
2023-03-18T02:11:50.401Z,22.20
2023-03-18T02:15:00.349Z,22.20
2023-03-18T02:18:09.946Z,22.10
2023-03-18T02:21:25.186Z,22.10
2023-03-18T02:24:40.627Z,22.10
2023-03-18T02:27:56.799Z,22.10
2023-03-18T02:31:06.896Z,22.10
2023-03-18T02:34:16.553Z,22.00
2023-03-18T02:37:25.262Z,22.00
2023-03-18T02:40:34.639Z,22.00
2023-03-18T02:43:47.767Z,22.00
2023-03-18T02:46:57.108Z,22.00
2023-03-18T02:50:06.155Z,22.00
2023-03-18T02:53:15.207Z,21.90
2023-03-18T02:56:24.917Z,21.90
2023-03-18T02:59:34.431Z,21.90
2023-03-18T03:02:42.470Z,21.90
2023-03-18T03:05:50.412Z,21.90
2023-03-18T03:09:00.991Z,21.90
2023-03-18T03:12:09.173Z,21.90
2023-03-18T03:15:24.036Z,21.90
2023-03-18T03:18:37.253Z,21.90
2023-03-18T03:21:45.400Z,21.90
2023-03-18T03:24:53.483Z,21.90
2023-03-18T03:28:01.552Z,21.90
2023-03-18T03:31:11.266Z,21.90
2023-03-18T03:34:19.520Z,21.90
2023-03-18T03:37:27.932Z,21.90
2023-03-18T03:40:36.060Z,21.90
2023-03-18T03:43:44.662Z,21.90
2023-03-18T03:46:54.283Z,21.90
2023-03-18T03:50:04.152Z,21.90
2023-03-18T03:53:13.108Z,21.90
2023-03-18T03:56:21.122Z,21.90
2023-03-18T03:59:29.150Z,21.90
2023-03-18T04:02:56.311Z,21.90
2023-03-18T04:06:06.852Z,21.90
2023-03-18T04:09:17.452Z,21.90
2023-03-18T04:12:26.572Z,21.90
2023-03-18T04:15:39.211Z,21.90
2023-03-18T04:18:58.549Z,21.90
2023-03-18T04:22:06.939Z,21.90
2023-03-18T04:25:15.743Z,21.90
2023-03-18T04:28:23.750Z,21.90
2023-03-18T04:31:41.125Z,21.90
2023-03-18T04:34:50.494Z,21.90
2023-03-18T04:37:58.711Z,21.90
2023-03-18T04:41:08.061Z,21.90
2023-03-18T04:44:17.278Z,21.90
2023-03-18T04:47:32.488Z,21.90
2023-03-18T04:50:42.065Z,21.90
2023-03-18T04:53:54.802Z,21.90
2023-03-18T04:57:03.324Z,21.80
2023-03-18T05:00:17.170Z,21.90
2023-03-18T05:03:27.771Z,21.90
2023-03-18T05:06:37.345Z,21.80
2023-03-18T05:09:50.556Z,21.90
2023-03-18T05:12:59.011Z,21.80
2023-03-18T05:16:13.616Z,21.80
2023-03-18T05:19:21.977Z,21.80
2023-03-18T05:22:40.652Z,21.80
2023-03-18T05:25:56.406Z,21.80
2023-03-18T05:29:07.407Z,21.80
2023-03-18T05:32:33.924Z,21.80
2023-03-18T05:35:45.003Z,21.80
2023-03-18T05:38:54.219Z,21.80
2023-03-18T05:42:04.581Z,21.80
2023-03-18T05:45:12.719Z,21.80
2023-03-18T05:48:29.932Z,21.80
2023-03-18T05:51:43.491Z,21.80
2023-03-18T05:54:57.513Z,21.80
2023-03-18T05:58:10.943Z,21.80
2023-03-18T06:01:21.888Z,21.80
2023-03-18T06:04:31.082Z,21.80
2023-03-18T06:07:39.281Z,21.80
2023-03-18T06:10:48.832Z,21.80
2023-03-18T06:13:56.824Z,21.80
2023-03-18T06:17:05.520Z,21.80
2023-03-18T06:20:14.667Z,21.80
2023-03-18T06:23:23.018Z,21.80
2023-03-18T06:26:32.997Z,21.80
2023-03-18T06:29:43.862Z,21.80
2023-03-18T06:32:55.351Z,21.80
2023-03-18T06:36:07.774Z,21.80
2023-03-18T06:39:15.695Z,21.80
2023-03-18T06:42:26.600Z,21.80
2023-03-18T06:45:54.963Z,21.80
2023-03-18T06:49:02.888Z,21.80
2023-03-18T06:52:14.711Z,21.80
2023-03-18T06:55:26.379Z,21.80
2023-03-18T06:58:36.019Z,21.80
2023-03-18T07:01:49.296Z,21.80
2023-03-18T07:05:01.965Z,21.80
2023-03-18T07:08:11.166Z,21.80
2023-03-18T07:11:19.402Z,21.80
2023-03-18T07:14:29.358Z,21.80
2023-03-18T07:17:38.232Z,21.80
2023-03-18T07:20:46.548Z,21.80
2023-03-18T07:23:56.137Z,21.80
2023-03-18T07:27:06.771Z,21.80
2023-03-18T07:30:17.943Z,21.80
2023-03-18T07:33:25.878Z,21.80
2023-03-18T07:36:34.527Z,21.80
2023-03-18T07:39:43.463Z,21.80
2023-03-18T07:42:53.499Z,21.80
2023-03-18T07:46:02.871Z,21.80
2023-03-18T07:49:10.641Z,21.80
2023-03-18T07:52:19.049Z,21.80
2023-03-18T07:55:33.218Z,21.80
2023-03-18T07:58:42.277Z,21.80
2023-03-18T08:01:51.589Z,21.80
2023-03-18T08:04:59.945Z,21.80
2023-03-18T08:08:08.137Z,21.80
2023-03-18T08:11:16.221Z,21.80
2023-03-18T08:14:24.292Z,21.80
2023-03-18T08:17:33.656Z,21.80
2023-03-18T08:20:41.585Z,21.80
2023-03-18T08:23:49.737Z,21.80
2023-03-18T08:26:57.812Z,21.90
2023-03-18T08:30:07.196Z,21.90
2023-03-18T08:33:16.882Z,21.90
2023-03-18T08:36:25.090Z,21.90
2023-03-18T08:39:33.710Z,21.90
2023-03-18T08:42:41.509Z,21.90
2023-03-18T08:45:53.616Z,21.80
2023-03-18T08:49:03.104Z,21.80
2023-03-18T08:52:11.802Z,21.80
2023-03-18T08:55:21.402Z,21.80
2023-03-18T08:58:29.493Z,21.80
2023-03-18T09:01:37.755Z,21.80
2023-03-18T09:04:48.105Z,21.80
2023-03-18T09:07:56.269Z,21.80
2023-03-18T09:11:04.475Z,21.80
2023-03-18T09:14:13.264Z,21.80
2023-03-18T09:17:31.998Z,21.80
2023-03-18T09:20:48.421Z,21.70
2023-03-18T09:23:56.527Z,21.80
2023-03-18T09:27:04.404Z,21.80
2023-03-18T09:30:14.077Z,21.80
2023-03-18T09:33:22.236Z,21.80
2023-03-18T09:36:31.905Z,21.80
2023-03-18T09:39:39.973Z,21.80
2023-03-18T09:42:55.329Z,21.80
2023-03-18T09:46:05.282Z,21.80
2023-03-18T09:49:18.676Z,21.80
2023-03-18T09:52:29.765Z,21.80
2023-03-18T09:55:41.042Z,21.80
2023-03-18T09:58:51.183Z,21.80
2023-03-18T10:01:59.881Z,21.80
2023-03-18T10:05:12.494Z,21.80
2023-03-18T10:08:23.443Z,21.80
2023-03-18T10:11:33.174Z,21.80
2023-03-18T10:14:42.704Z,21.80
2023-03-18T10:17:53.791Z,21.80
2023-03-18T10:21:09.306Z,21.80
2023-03-18T10:24:26.305Z,21.80
2023-03-18T10:27:42.641Z,21.80
2023-03-18T10:30:55.881Z,21.80
2023-03-18T10:34:09.504Z,21.80
2023-03-18T10:37:24.751Z,21.80
2023-03-18T10:40:36.664Z,21.80
2023-03-18T10:43:44.767Z,21.80
2023-03-18T10:46:57.226Z,21.80
2023-03-18T10:50:11.003Z,21.80
2023-03-18T10:53:20.820Z,21.80
2023-03-18T10:56:30.467Z,21.80
2023-03-18T10:59:38.445Z,21.80
2023-03-18T11:02:46.662Z,21.90
2023-03-18T11:05:55.965Z,21.80
2023-03-18T11:09:07.018Z,21.90
2023-03-18T11:12:19.577Z,21.90
2023-03-18T11:15:27.825Z,21.90
2023-03-18T11:18:35.787Z,21.90
2023-03-18T11:21:44.905Z,21.90
2023-03-18T11:25:03.189Z,21.90
2023-03-18T11:28:20.838Z,21.90
2023-03-18T11:31:28.989Z,22.00
2023-03-18T11:34:37.695Z,22.00
2023-03-18T11:37:48.048Z,21.90
2023-03-18T11:41:05.270Z,21.80
2023-03-18T11:44:18.960Z,21.80
2023-03-18T11:47:28.342Z,21.80
2023-03-18T11:50:40.494Z,21.90
2023-03-18T11:53:58.698Z,21.90
2023-03-18T11:57:10.574Z,21.90
2023-03-18T12:00:25.319Z,21.90
2023-03-18T12:03:58.622Z,21.90
2023-03-18T12:07:13.105Z,21.90
2023-03-18T12:10:25.870Z,21.90
2023-03-18T12:13:37.765Z,21.90
2023-03-18T12:16:53.125Z,21.90
2023-03-18T12:20:23.710Z,21.90
2023-03-18T12:23:45.836Z,21.90
2023-03-18T12:26:57.789Z,22.00
2023-03-18T12:30:47.943Z,22.00
2023-03-18T12:33:57.727Z,22.00
2023-03-18T12:37:13.996Z,22.00
2023-03-18T12:40:31.252Z,22.10
2023-03-18T12:43:58.432Z,22.10
2023-03-18T12:47:07.626Z,22.10
2023-03-18T12:50:19.385Z,22.10
2023-03-18T12:53:29.833Z,22.20
2023-03-18T12:56:43.293Z,22.20
2023-03-18T12:59:53.831Z,22.20
2023-03-18T13:03:07.491Z,22.20
2023-03-18T13:06:19.148Z,22.20
2023-03-18T13:09:28.472Z,22.20
2023-03-18T13:12:36.758Z,22.10
2023-03-18T13:15:46.102Z,22.10
2023-03-18T13:18:54.383Z,22.10
2023-03-18T13:22:08.340Z,22.10
2023-03-18T13:25:20.094Z,22.10
2023-03-18T13:28:38.289Z,22.10
2023-03-18T13:31:52.516Z,22.10
2023-03-18T13:35:19.580Z,22.10
2023-03-18T13:38:50.741Z,22.10
2023-03-18T13:42:13.881Z,22.10
2023-03-18T13:45:25.368Z,22.20
2023-03-18T13:48:34.710Z,22.10
2023-03-18T13:51:51.260Z,22.20
2023-03-18T13:55:03.528Z,22.20
2023-03-18T13:58:23.524Z,22.20
2023-03-18T14:01:34.000Z,22.20
2023-03-18T14:04:48.877Z,22.20
2023-03-18T14:07:56.843Z,22.20
2023-03-18T14:11:47.576Z,22.20
2023-03-18T14:14:59.085Z,22.20
2023-03-18T14:18:19.900Z,22.20
2023-03-18T14:21:28.780Z,22.20
2023-03-18T14:24:37.307Z,22.20
2023-03-18T14:27:46.336Z,22.10
2023-03-18T14:31:21.443Z,22.20
2023-03-18T14:34:30.801Z,22.10
2023-03-18T14:37:38.918Z,22.10
2023-03-18T14:40:48.195Z,22.10
2023-03-18T14:44:04.612Z,22.10
2023-03-18T14:47:35.675Z,22.10
2023-03-18T14:50:47.195Z,22.10
2023-03-18T14:53:56.841Z,22.10
2023-03-18T14:57:05.496Z,22.10
2023-03-18T15:00:16.452Z,22.10
2023-03-18T15:03:26.684Z,22.10
2023-03-18T15:06:34.864Z,22.10
2023-03-18T15:09:43.733Z,22.20
2023-03-18T15:12:59.292Z,22.10
2023-03-18T15:16:10.458Z,22.10
2023-03-18T15:19:20.327Z,22.10
2023-03-18T15:22:29.576Z,22.10
2023-03-18T15:25:38.287Z,22.10
2023-03-18T15:28:47.703Z,22.10
2023-03-18T15:31:56.264Z,22.10
2023-03-18T15:35:15.287Z,22.10
2023-03-18T15:38:27.502Z,22.10
2023-03-18T15:41:36.949Z,22.10
2023-03-18T15:44:46.602Z,22.10
2023-03-18T15:47:54.796Z,22.10
2023-03-18T15:51:05.901Z,22.10
2023-03-18T15:54:17.540Z,22.10
2023-03-18T15:57:30.183Z,22.10
2023-03-18T16:00:38.678Z,22.10
2023-03-18T16:03:47.418Z,22.10
2023-03-18T16:06:56.704Z,22.10
2023-03-18T16:10:04.919Z,22.10
2023-03-18T16:13:20.449Z,22.10
2023-03-18T16:16:29.017Z,22.10
2023-03-18T16:19:37.410Z,22.10
2023-03-18T16:22:46.704Z,22.10
2023-03-18T16:25:56.141Z,22.10
2023-03-18T16:29:06.872Z,22.10
2023-03-18T16:32:15.276Z,22.10
2023-03-18T16:35:24.679Z,22.10
2023-03-18T16:38:34.817Z,22.10
2023-03-18T16:41:43.962Z,22.10
2023-03-18T16:44:51.891Z,22.10
2023-03-18T16:48:00.697Z,22.10
2023-03-18T16:51:08.644Z,22.10
2023-03-18T16:54:22.636Z,22.10
2023-03-18T16:57:30.488Z,22.10
2023-03-18T17:00:38.755Z,22.10
2023-03-18T17:03:46.808Z,22.10
2023-03-18T17:06:55.030Z,22.10
2023-03-18T17:10:04.848Z,22.20
2023-03-18T17:13:19.617Z,22.20
2023-03-18T17:16:30.501Z,22.20
2023-03-18T17:19:39.975Z,22.20
2023-03-18T17:22:48.226Z,22.20
2023-03-18T17:25:59.199Z,22.20
2023-03-18T17:29:08.451Z,22.20
2023-03-18T17:32:19.282Z,22.20
2023-03-18T17:35:27.848Z,22.30
2023-03-18T17:38:36.296Z,22.20
2023-03-18T17:41:45.610Z,22.30
2023-03-18T17:44:53.616Z,22.30
2023-03-18T17:48:12.259Z,22.30
2023-03-18T17:51:21.308Z,22.40
2023-03-18T17:54:31.485Z,22.40
2023-03-18T17:57:42.208Z,22.50
2023-03-18T18:00:50.220Z,22.50
2023-03-18T18:03:58.931Z,22.60
2023-03-18T18:07:09.849Z,22.60
2023-03-18T18:10:19.610Z,22.60
2023-03-18T18:13:29.640Z,22.60
2023-03-18T18:16:37.566Z,22.60
2023-03-18T18:19:45.769Z,22.70
2023-03-18T18:22:55.004Z,22.60
2023-03-18T18:26:04.509Z,22.70
2023-03-18T18:29:16.604Z,22.70
2023-03-18T18:32:26.719Z,22.70
2023-03-18T18:35:34.871Z,22.70
2023-03-18T18:38:43.164Z,22.70
2023-03-18T18:41:51.315Z,22.70
2023-03-18T18:45:01.322Z,22.70
2023-03-18T18:48:14.109Z,22.70
2023-03-18T18:51:22.777Z,22.70
2023-03-18T18:54:30.901Z,22.70
2023-03-18T18:57:39.364Z,22.70
2023-03-18T19:00:49.585Z,22.60
2023-03-18T19:03:58.085Z,22.60
2023-03-18T19:07:06.498Z,22.50
2023-03-18T19:10:15.647Z,22.50
2023-03-18T19:13:24.619Z,22.50
2023-03-18T19:16:34.504Z,22.50
2023-03-18T19:19:42.727Z,22.50
2023-03-18T19:22:51.054Z,22.50
2023-03-18T19:25:59.928Z,22.50
2023-03-18T19:29:09.927Z,22.50
2023-03-18T19:32:20.252Z,22.50
2023-03-18T19:35:28.383Z,22.50
2023-03-18T19:38:36.536Z,22.50
2023-03-18T19:41:44.829Z,22.50
2023-03-18T19:44:53.146Z,22.50
2023-03-18T19:48:02.744Z,22.50
2023-03-18T19:51:15.190Z,22.60
2023-03-18T19:54:31.387Z,22.60
2023-03-18T19:57:39.281Z,22.60
2023-03-18T20:00:47.459Z,22.60
2023-03-18T20:03:58.092Z,22.60
2023-03-18T20:07:06.601Z,22.70
2023-03-18T20:10:14.698Z,22.70
2023-03-18T20:13:22.496Z,22.70
2023-03-18T20:16:30.592Z,22.70
2023-03-18T20:19:39.683Z,22.70
2023-03-18T20:22:48.550Z,22.70
2023-03-18T20:25:57.055Z,22.70
2023-03-18T20:29:15.747Z,22.70
2023-03-18T20:32:23.431Z,22.80
2023-03-18T20:35:33.995Z,22.80
2023-03-18T20:38:42.048Z,22.80
2023-03-18T20:41:50.466Z,22.80
2023-03-18T20:44:58.697Z,22.80
2023-03-18T20:48:07.108Z,22.80
2023-03-18T20:51:20.316Z,22.80
2023-03-18T20:54:29.982Z,22.90
2023-03-18T20:57:37.812Z,22.90
2023-03-18T21:00:46.592Z,22.90
2023-03-18T21:03:54.808Z,22.90
2023-03-18T21:07:04.185Z,22.90
2023-03-18T21:10:16.733Z,22.90
2023-03-18T21:13:29.615Z,22.90
2023-03-18T21:16:38.300Z,22.90
2023-03-18T21:19:46.867Z,22.90
2023-03-18T21:22:57.161Z,22.90
2023-03-18T21:26:05.299Z,22.90
2023-03-18T21:29:13.440Z,22.90
2023-03-18T21:32:23.443Z,22.90
2023-03-18T21:35:31.981Z,22.90
2023-03-18T21:38:41.390Z,22.90
2023-03-18T21:41:49.537Z,22.90
2023-03-18T21:44:57.677Z,22.90
2023-03-18T21:48:08.538Z,22.90
2023-03-18T21:51:35.449Z,22.90
2023-03-18T21:54:47.607Z,22.90
2023-03-18T21:57:55.650Z,22.90
2023-03-18T22:01:03.757Z,22.90
2023-03-18T22:04:12.166Z,22.90
2023-03-18T22:07:23.042Z,22.90
2023-03-18T22:10:32.666Z,22.90
2023-03-18T22:13:40.623Z,22.90
2023-03-18T22:16:48.507Z,22.80
2023-03-18T22:19:56.610Z,22.80
2023-03-18T22:23:14.571Z,22.80
2023-03-18T22:26:24.019Z,22.80
2023-03-18T22:29:31.856Z,22.80
2023-03-18T22:32:41.492Z,22.80
2023-03-18T22:35:49.627Z,22.80
2023-03-18T22:38:57.417Z,22.70
2023-03-18T22:42:07.126Z,22.70
2023-03-18T22:45:22.670Z,22.70
2023-03-18T22:48:30.549Z,22.70
2023-03-18T22:51:39.274Z,22.70
2023-03-18T22:54:47.174Z,22.70
2023-03-18T22:57:56.340Z,22.70
2023-03-18T23:01:04.752Z,22.70
2023-03-18T23:04:12.696Z,22.70
2023-03-18T23:07:27.962Z,22.70
2023-03-18T23:10:36.352Z,22.70
2023-03-18T23:13:46.607Z,22.60
2023-03-18T23:16:54.579Z,22.60
2023-03-18T23:20:02.551Z,22.60
2023-03-18T23:23:10.868Z,22.60
2023-03-18T23:26:18.625Z,22.60
2023-03-18T23:29:28.032Z,22.60
2023-03-18T23:32:36.196Z,22.60
2023-03-18T23:35:44.072Z,22.60
2023-03-18T23:38:52.231Z,22.60
2023-03-18T23:42:00.203Z,22.60
2023-03-18T23:45:10.842Z,22.60
2023-03-18T23:48:18.660Z,22.60
2023-03-18T23:51:26.816Z,22.60
2023-03-18T23:54:35.150Z,22.60
2023-03-18T23:57:42.986Z,22.60
